sensor_id;sensor_type;location;lat;lon;timestamp;noise_LAeq;noise_LA_min;noise_LA_max;noise_LA01;noise_LA95
49732;Laerm;43666;51.442;6.778;2024-01-25T00:01:26;38.14;35.04;40.89;;
49732;Laerm;43666;51.442;6.778;2024-01-25T00:03:52;38.14;33.90;40.80;;
49732;Laerm;43666;51.442;6.778;2024-01-25T00:06:19;38.05;35.04;40.53;;
49732;Laerm;43666;51.442;6.778;2024-01-25T00:08:52;38.04;34.31;40.71;;
49732;Laerm;43666;51.442;6.778;2024-01-25T00:11:18;38.07;34.31;40.53;;
49732;Laerm;43666;51.442;6.778;2024-01-25T00:13:51;38.05;34.69;40.33;;
49732;Laerm;43666;51.442;6.778;2024-01-25T00:16:16;38.12;34.69;40.71;;
49732;Laerm;43666;51.442;6.778;2024-01-25T00:18:42;38.06;35.01;40.53;;
49732;Laerm;43666;51.442;6.778;2024-01-25T00:21:12;38.07;35.04;40.62;;
49732;Laerm;43666;51.442;6.778;2024-01-25T00:23:39;38.13;35.04;41.14;;
49732;Laerm;43666;51.442;6.778;2024-01-25T00:26:08;38.17;34.31;40.62;;
49732;Laerm;43666;51.442;6.778;2024-01-25T00:28:34;38.16;34.69;40.62;;
49732;Laerm;43666;51.442;6.778;2024-01-25T00:31:00;38.08;33.44;40.89;;
49732;Laerm;43666;51.442;6.778;2024-01-25T00:33:26;38.12;35.04;40.53;;
49732;Laerm;43666;51.442;6.778;2024-01-25T00:35:52;38.14;33.44;41.22;;
49732;Laerm;43666;51.442;6.778;2024-01-25T00:38:20;38.06;34.31;40.53;;
49732;Laerm;43666;51.442;6.778;2024-01-25T00:40:46;38.10;34.69;41.14;;
49732;Laerm;43666;51.442;6.778;2024-01-25T00:43:18;38.12;34.31;40.43;;
49732;Laerm;43666;51.442;6.778;2024-01-25T00:45:43;38.05;34.31;40.62;;
49732;Laerm;43666;51.442;6.778;2024-01-25T00:48:09;38.04;35.04;40.71;;
49732;Laerm;43666;51.442;6.778;2024-01-25T00:50:36;38.12;34.69;40.62;;
49732;Laerm;43666;51.442;6.778;2024-01-25T00:53:10;38.12;34.69;40.53;;
49732;Laerm;43666;51.442;6.778;2024-01-25T00:55:36;38.08;34.69;40.62;;
49732;Laerm;43666;51.442;6.778;2024-01-25T00:58:02;38.16;35.04;40.80;;
49732;Laerm;43666;51.442;6.778;2024-01-25T01:00:28;38.10;34.31;40.80;;
49732;Laerm;43666;51.442;6.778;2024-01-25T01:02:56;38.05;34.69;40.43;;
49732;Laerm;43666;51.442;6.778;2024-01-25T01:05:28;38.01;33.90;40.43;;
49732;Laerm;43666;51.442;6.778;2024-01-25T01:07:54;37.98;34.31;40.53;;
49732;Laerm;43666;51.442;6.778;2024-01-25T01:10:20;38.00;33.44;40.43;;
49732;Laerm;43666;51.442;6.778;2024-01-25T01:12:52;38.02;34.69;40.62;;
49732;Laerm;43666;51.442;6.778;2024-01-25T01:15:19;37.98;34.31;40.80;;
49732;Laerm;43666;51.442;6.778;2024-01-25T01:17:45;38.03;34.69;40.62;;
49732;Laerm;43666;51.442;6.778;2024-01-25T01:20:11;38.03;34.69;40.62;;
49732;Laerm;43666;51.442;6.778;2024-01-25T01:22:37;38.17;34.69;40.98;;
49732;Laerm;43666;51.442;6.778;2024-01-25T01:25:03;38.22;34.69;40.98;;
49732;Laerm;43666;51.442;6.778;2024-01-25T01:27:32;38.22;34.69;40.71;;
49732;Laerm;43666;51.442;6.778;2024-01-25T01:29:58;38.14;33.90;40.53;;
49732;Laerm;43666;51.442;6.778;2024-01-25T01:32:23;38.07;33.90;40.53;;
49732;Laerm;43666;51.442;6.778;2024-01-25T01:34:49;38.01;33.90;40.63;;
49732;Laerm;43666;51.442;6.778;2024-01-25T01:37:22;38.07;33.44;40.45;;
49732;Laerm;43666;51.442;6.778;2024-01-25T01:39:51;37.92;33.90;40.89;;
49732;Laerm;43666;51.442;6.778;2024-01-25T01:42:19;37.88;33.44;40.53;;
49732;Laerm;43666;51.442;6.778;2024-01-25T01:44:44;37.98;34.69;40.71;;
49732;Laerm;43666;51.442;6.778;2024-01-25T01:47:10;37.98;33.90;40.53;;
49732;Laerm;43666;51.442;6.778;2024-01-25T01:49:38;38.11;34.31;40.80;;
49732;Laerm;43666;51.442;6.778;2024-01-25T01:52:06;38.10;34.31;40.62;;
49732;Laerm;43666;51.442;6.778;2024-01-25T01:54:32;38.11;34.69;40.80;;
49732;Laerm;43666;51.442;6.778;2024-01-25T01:57:01;38.07;34.34;40.89;;
49732;Laerm;43666;51.442;6.778;2024-01-25T01:59:27;37.94;34.31;40.43;;
49732;Laerm;43666;51.442;6.778;2024-01-25T02:01:54;37.93;33.44;40.63;;
49732;Laerm;43666;51.442;6.778;2024-01-25T02:04:23;37.98;34.31;40.71;;
49732;Laerm;43666;51.442;6.778;2024-01-25T02:07:00;37.96;34.31;40.80;;
49732;Laerm;43666;51.442;6.778;2024-01-25T02:09:26;37.89;34.31;40.53;;
49732;Laerm;43666;51.442;6.778;2024-01-25T02:12:04;37.94;33.44;40.71;;
49732;Laerm;43666;51.442;6.778;2024-01-25T02:14:30;37.90;34.31;40.62;;
49732;Laerm;43666;51.442;6.778;2024-01-25T02:16:56;37.85;34.31;44.19;;
49732;Laerm;43666;51.442;6.778;2024-01-25T02:19:22;37.89;33.44;40.13;;
49732;Laerm;43666;51.442;6.778;2024-01-25T02:21:49;37.89;33.90;40.33;;
49732;Laerm;43666;51.442;6.778;2024-01-25T02:24:15;37.94;34.31;40.62;;
49732;Laerm;43666;51.442;6.778;2024-01-25T02:26:41;37.98;34.69;40.89;;
49732;Laerm;43666;51.442;6.778;2024-01-25T02:29:07;37.92;34.31;40.80;;
49732;Laerm;43666;51.442;6.778;2024-01-25T02:31:35;37.95;33.44;40.53;;
49732;Laerm;43666;51.442;6.778;2024-01-25T02:34:10;37.97;34.31;40.62;;
49732;Laerm;43666;51.442;6.778;2024-01-25T02:36:45;37.98;34.31;51.61;;
49732;Laerm;43666;51.442;6.778;2024-01-25T02:39:11;37.94;33.90;40.53;;
49732;Laerm;43666;51.442;6.778;2024-01-25T02:41:43;37.90;34.31;40.53;;
49732;Laerm;43666;51.442;6.778;2024-01-25T02:44:10;37.89;34.31;40.53;;
49732;Laerm;43666;51.442;6.778;2024-01-25T02:46:37;37.79;33.90;40.23;;
49732;Laerm;43666;51.442;6.778;2024-01-25T02:49:03;37.75;33.90;40.71;;
49732;Laerm;43666;51.442;6.778;2024-01-25T02:51:29;37.74;33.90;40.53;;
49732;Laerm;43666;51.442;6.778;2024-01-25T02:53:55;37.64;33.44;40.33;;
49732;Laerm;43666;51.442;6.778;2024-01-25T02:56:21;37.59;32.93;40.23;;
49732;Laerm;43666;51.442;6.778;2024-01-25T02:58:47;37.56;33.44;40.33;;
49732;Laerm;43666;51.442;6.778;2024-01-25T03:01:12;37.56;33.44;40.13;;
49732;Laerm;43666;51.442;6.778;2024-01-25T03:03:40;37.56;32.93;40.23;;
49732;Laerm;43666;51.442;6.778;2024-01-25T03:06:06;37.57;32.35;40.33;;
49732;Laerm;43666;51.442;6.778;2024-01-25T03:08:36;37.57;32.93;40.43;;
49732;Laerm;43666;51.442;6.778;2024-01-25T03:11:02;37.54;32.93;40.62;;
49732;Laerm;43666;51.442;6.778;2024-01-25T03:13:29;37.48;32.93;40.13;;
49732;Laerm;43666;51.442;6.778;2024-01-25T03:15:55;37.48;33.44;40.03;;
49732;Laerm;43666;51.442;6.778;2024-01-25T03:18:21;37.51;32.93;40.33;;
49732;Laerm;43666;51.442;6.778;2024-01-25T03:20:46;37.51;32.93;40.43;;
49732;Laerm;43666;51.442;6.778;2024-01-25T03:23:12;37.54;33.44;40.53;;
49732;Laerm;43666;51.442;6.778;2024-01-25T03:25:38;37.54;32.35;40.23;;
49732;Laerm;43666;51.442;6.778;2024-01-25T03:28:04;37.63;33.44;40.80;;
49732;Laerm;43666;51.442;6.778;2024-01-25T03:30:32;37.59;32.93;40.43;;
49732;Laerm;43666;51.442;6.778;2024-01-25T03:32:57;37.60;32.35;40.23;;
49732;Laerm;43666;51.442;6.778;2024-01-25T03:35:24;37.61;31.68;40.45;;
49732;Laerm;43666;51.442;6.778;2024-01-25T03:37:50;37.59;32.35;40.98;;
49732;Laerm;43666;51.442;6.778;2024-01-25T03:40:16;37.57;32.93;40.13;;
49732;Laerm;43666;51.442;6.778;2024-01-25T03:42:45;37.52;31.68;40.43;;
49732;Laerm;43666;51.442;6.778;2024-01-25T03:45:11;37.51;32.35;40.43;;
49732;Laerm;43666;51.442;6.778;2024-01-25T03:47:37;37.54;32.35;40.33;;
49732;Laerm;43666;51.442;6.778;2024-01-25T03:50:04;37.87;32.35;62.23;;
49732;Laerm;43666;51.442;6.778;2024-01-25T03:52:29;37.55;32.93;40.23;;
49732;Laerm;43666;51.442;6.778;2024-01-25T03:54:56;37.52;32.93;40.43;;
49732;Laerm;43666;51.442;6.778;2024-01-25T03:57:27;37.51;32.35;40.33;;
49732;Laerm;43666;51.442;6.778;2024-01-25T03:59:54;37.50;31.68;40.33;;
49732;Laerm;43666;51.442;6.778;2024-01-25T04:02:20;37.42;31.68;40.03;;
49732;Laerm;43666;51.442;6.778;2024-01-25T04:04:46;37.40;32.35;40.13;;
49732;Laerm;43666;51.442;6.778;2024-01-25T04:07:11;37.51;32.35;40.43;;
49732;Laerm;43666;51.442;6.778;2024-01-25T04:09:43;37.43;33.44;40.13;;
49732;Laerm;43666;51.442;6.778;2024-01-25T04:12:09;37.39;33.44;40.23;;
49732;Laerm;43666;51.442;6.778;2024-01-25T04:14:35;37.33;28.67;40.53;;
49732;Laerm;43666;51.442;6.778;2024-01-25T04:17:00;37.39;32.93;50.17;;
49732;Laerm;43666;51.442;6.778;2024-01-25T04:19:33;37.37;32.35;40.13;;
49732;Laerm;43666;51.442;6.778;2024-01-25T04:22:15;37.47;31.68;40.33;;
49732;Laerm;43666;51.442;6.778;2024-01-25T04:24:53;37.48;33.44;40.98;;
49732;Laerm;43666;51.442;6.778;2024-01-25T04:27:19;37.50;32.93;40.33;;
49732;Laerm;43666;51.442;6.778;2024-01-25T04:29:45;37.50;32.35;40.62;;
49732;Laerm;43666;51.442;6.778;2024-01-25T04:32:12;37.42;32.00;40.13;;
49732;Laerm;43666;51.442;6.778;2024-01-25T04:34:37;37.45;32.35;40.33;;
49732;Laerm;43666;51.442;6.778;2024-01-25T04:37:03;37.51;32.35;40.43;;
49732;Laerm;43666;51.442;6.778;2024-01-25T04:39:30;37.50;32.93;40.43;;
49732;Laerm;43666;51.442;6.778;2024-01-25T04:41:57;37.60;31.68;54.90;;
49732;Laerm;43666;51.442;6.778;2024-01-25T04:44:23;37.60;32.35;40.62;;
49732;Laerm;43666;51.442;6.778;2024-01-25T04:46:49;37.60;32.93;40.89;;
49732;Laerm;43666;51.442;6.778;2024-01-25T04:49:15;37.52;29.92;40.62;;
49732;Laerm;43666;51.442;6.778;2024-01-25T04:51:41;37.37;32.93;40.33;;
49732;Laerm;43666;51.442;6.778;2024-01-25T04:54:07;37.46;32.93;40.13;;
49732;Laerm;43666;51.442;6.778;2024-01-25T04:56:37;37.41;32.35;40.43;;
49732;Laerm;43666;51.442;6.778;2024-01-25T04:59:06;37.39;29.92;40.53;;
49732;Laerm;43666;51.442;6.778;2024-01-25T05:01:37;37.38;31.68;40.43;;
49732;Laerm;43666;51.442;6.778;2024-01-25T05:04:04;37.53;32.93;40.62;;
49732;Laerm;43666;51.442;6.778;2024-01-25T05:06:32;37.41;32.35;40.13;;
49732;Laerm;43666;51.442;6.778;2024-01-25T05:09:06;37.40;31.68;40.45;;
49732;Laerm;43666;51.442;6.778;2024-01-25T05:11:38;37.44;32.93;40.33;;
49732;Laerm;43666;51.442;6.778;2024-01-25T05:14:05;37.43;31.68;40.23;;
49732;Laerm;43666;51.442;6.778;2024-01-25T05:16:37;37.41;32.35;40.71;;
49732;Laerm;43666;51.442;6.778;2024-01-25T05:19:02;37.41;29.92;40.43;;
49732;Laerm;43666;51.442;6.778;2024-01-25T05:21:29;37.41;32.35;40.53;;
49732;Laerm;43666;51.442;6.778;2024-01-25T05:23:55;37.51;32.35;40.33;;
49732;Laerm;43666;51.442;6.778;2024-01-25T05:26:21;37.38;32.35;40.13;;
49732;Laerm;43666;51.442;6.778;2024-01-25T05:28:46;37.47;32.35;40.33;;
49732;Laerm;43666;51.442;6.778;2024-01-25T05:31:12;37.48;32.35;40.71;;
49732;Laerm;43666;51.442;6.778;2024-01-25T05:33:38;37.30;31.68;40.54;;
49732;Laerm;43666;51.442;6.778;2024-01-25T05:36:05;37.37;31.68;40.23;;
49732;Laerm;43666;51.442;6.778;2024-01-25T05:38:31;37.45;32.35;40.43;;
49732;Laerm;43666;51.442;6.778;2024-01-25T05:40:58;37.39;31.68;40.71;;
49732;Laerm;43666;51.442;6.778;2024-01-25T05:43:24;37.44;31.68;40.80;;
49732;Laerm;43666;51.442;6.778;2024-01-25T05:45:50;37.47;32.35;40.33;;
49732;Laerm;43666;51.442;6.778;2024-01-25T05:48:15;37.51;32.93;40.98;;
49732;Laerm;43666;51.442;6.778;2024-01-25T05:50:41;37.37;32.35;40.53;;
49732;Laerm;43666;51.442;6.778;2024-01-25T05:53:14;37.28;30.89;40.13;;
49732;Laerm;43666;51.442;6.778;2024-01-25T05:55:48;37.36;31.68;40.13;;
49732;Laerm;43666;51.442;6.778;2024-01-25T05:58:14;37.43;29.92;40.33;;
49732;Laerm;43666;51.442;6.778;2024-01-25T06:00:42;37.40;30.89;40.23;;
49732;Laerm;43666;51.442;6.778;2024-01-25T06:03:08;37.39;32.35;40.23;;
49732;Laerm;43666;51.442;6.778;2024-01-25T06:05:35;37.56;32.93;40.43;;
49732;Laerm;43666;51.442;6.778;2024-01-25T06:08:02;37.79;32.93;41.41;;
49732;Laerm;43666;51.442;6.778;2024-01-25T06:10:28;38.25;33.44;41.89;;
49732;Laerm;43666;51.442;6.778;2024-01-25T06:13:02;37.75;32.93;40.62;;
49732;Laerm;43666;51.442;6.778;2024-01-25T06:15:28;37.84;31.68;40.89;;
49732;Laerm;43666;51.442;6.778;2024-01-25T06:17:57;37.69;32.35;40.62;;
49732;Laerm;43666;51.442;6.778;2024-01-25T06:20:47;37.35;30.89;40.43;;
49732;Laerm;43666;51.442;6.778;2024-01-25T06:23:13;37.64;30.89;40.53;;
49732;Laerm;43666;51.442;6.778;2024-01-25T06:25:39;37.78;31.68;40.98;;
49732;Laerm;43666;51.442;6.778;2024-01-25T06:28:08;37.62;29.92;41.14;;
49732;Laerm;43666;51.442;6.778;2024-01-25T06:30:43;37.64;31.68;41.06;;
49732;Laerm;43666;51.442;6.778;2024-01-25T06:33:09;37.59;32.35;40.89;;
49732;Laerm;43666;51.442;6.778;2024-01-25T06:35:35;37.55;32.35;40.53;;
49732;Laerm;43666;51.442;6.778;2024-01-25T06:38:00;37.52;31.68;40.71;;
49732;Laerm;43666;51.442;6.778;2024-01-25T06:40:27;37.64;31.68;41.22;;
49732;Laerm;43666;51.442;6.778;2024-01-25T06:42:53;37.81;31.68;40.62;;
49732;Laerm;43666;51.442;6.778;2024-01-25T06:45:18;37.58;31.68;41.06;;
49732;Laerm;43666;51.442;6.778;2024-01-25T06:47:44;37.56;30.89;40.62;;
49732;Laerm;43666;51.442;6.778;2024-01-25T06:50:10;37.58;32.93;40.62;;
49732;Laerm;43666;51.442;6.778;2024-01-25T06:52:36;37.58;32.35;40.96;;
49732;Laerm;43666;51.442;6.778;2024-01-25T06:55:02;37.58;29.92;41.82;;
49732;Laerm;43666;51.442;6.778;2024-01-25T06:57:27;37.73;32.93;41.46;;
49732;Laerm;43666;51.442;6.778;2024-01-25T06:59:54;37.46;32.35;40.98;;
49732;Laerm;43666;51.442;6.778;2024-01-25T07:02:20;37.44;29.92;40.33;;
49732;Laerm;43666;51.442;6.778;2024-01-25T07:04:45;37.65;30.89;40.89;;
49732;Laerm;43666;51.442;6.778;2024-01-25T07:07:11;37.52;32.93;40.98;;
49732;Laerm;43666;51.442;6.778;2024-01-25T07:09:37;37.50;32.93;41.06;;
49732;Laerm;43666;51.442;6.778;2024-01-25T07:12:03;37.51;30.89;40.71;;
49732;Laerm;43666;51.442;6.778;2024-01-25T07:14:30;37.43;31.68;40.80;;
49732;Laerm;43666;51.442;6.778;2024-01-25T07:16:55;37.52;30.89;41.14;;
49732;Laerm;43666;51.442;6.778;2024-01-25T07:19:24;37.57;32.00;40.98;;
49732;Laerm;43666;51.442;6.778;2024-01-25T07:21:50;37.49;30.89;41.30;;
49732;Laerm;43666;51.442;6.778;2024-01-25T07:24:44;37.43;32.35;40.71;;
49732;Laerm;43666;51.442;6.778;2024-01-25T07:27:10;37.57;30.89;41.06;;
49732;Laerm;43666;51.442;6.778;2024-01-25T07:29:39;37.49;32.35;40.89;;
49732;Laerm;43666;51.442;6.778;2024-01-25T07:32:06;37.48;31.68;40.43;;
49732;Laerm;43666;51.442;6.778;2024-01-25T07:34:33;37.32;31.68;40.03;;
49732;Laerm;43666;51.442;6.778;2024-01-25T07:37:02;37.51;31.68;40.80;;
49732;Laerm;43666;51.442;6.778;2024-01-25T07:39:31;37.61;32.35;41.38;;
49732;Laerm;43666;51.442;6.778;2024-01-25T07:41:57;37.46;32.35;40.53;;
49732;Laerm;43666;51.442;6.778;2024-01-25T07:44:28;37.52;32.35;40.89;;
49732;Laerm;43666;51.442;6.778;2024-01-25T07:46:54;37.54;32.35;40.43;;
49732;Laerm;43666;51.442;6.778;2024-01-25T07:49:19;37.46;31.68;40.43;;
49732;Laerm;43666;51.442;6.778;2024-01-25T07:51:45;37.45;31.68;40.53;;
49732;Laerm;43666;51.442;6.778;2024-01-25T07:54:11;37.47;31.68;40.89;;
49732;Laerm;43666;51.442;6.778;2024-01-25T07:56:37;37.41;32.35;40.43;;
49732;Laerm;43666;51.442;6.778;2024-01-25T07:59:06;37.42;31.68;40.71;;
49732;Laerm;43666;51.442;6.778;2024-01-25T08:01:38;37.32;32.93;40.43;;
49732;Laerm;43666;51.442;6.778;2024-01-25T08:04:04;37.50;31.68;40.71;;
49732;Laerm;43666;51.442;6.778;2024-01-25T08:06:36;37.58;32.35;41.06;;
49732;Laerm;43666;51.442;6.778;2024-01-25T08:09:03;37.57;32.35;41.14;;
49732;Laerm;43666;51.442;6.778;2024-01-25T08:11:29;37.48;32.35;40.89;;
49732;Laerm;43666;51.442;6.778;2024-01-25T08:13:55;37.68;32.93;41.06;;
49732;Laerm;43666;51.442;6.778;2024-01-25T08:16:21;37.64;31.68;40.96;;
49732;Laerm;43666;51.442;6.778;2024-01-25T08:18:47;37.42;31.68;40.89;;
49732;Laerm;43666;51.442;6.778;2024-01-25T08:21:19;37.53;32.35;40.71;;
49732;Laerm;43666;51.442;6.778;2024-01-25T08:23:45;37.65;32.35;40.71;;
49732;Laerm;43666;51.442;6.778;2024-01-25T08:26:11;37.48;32.35;40.43;;
49732;Laerm;43666;51.442;6.778;2024-01-25T08:28:39;37.63;32.35;41.22;;
49732;Laerm;43666;51.442;6.778;2024-01-25T08:31:05;37.52;32.35;40.98;;
49732;Laerm;43666;51.442;6.778;2024-01-25T08:33:31;37.57;31.33;41.06;;
49732;Laerm;43666;51.442;6.778;2024-01-25T08:35:57;37.61;31.68;40.62;;
49732;Laerm;43666;51.442;6.778;2024-01-25T08:38:23;37.55;32.35;40.23;;
49732;Laerm;43666;51.442;6.778;2024-01-25T08:40:52;37.46;30.89;40.33;;
49732;Laerm;43666;51.442;6.778;2024-01-25T08:43:18;37.43;30.89;40.62;;
49732;Laerm;43666;51.442;6.778;2024-01-25T08:45:44;37.39;32.35;40.53;;
49732;Laerm;43666;51.442;6.778;2024-01-25T08:48:17;37.32;31.68;40.43;;
49732;Laerm;43666;51.442;6.778;2024-01-25T08:50:43;37.28;30.89;40.23;;
49732;Laerm;43666;51.442;6.778;2024-01-25T08:53:10;37.25;32.35;40.03;;
49732;Laerm;43666;51.442;6.778;2024-01-25T08:55:35;37.25;31.68;40.03;;
49732;Laerm;43666;51.442;6.778;2024-01-25T08:58:01;37.49;31.68;40.43;;
49732;Laerm;43666;51.442;6.778;2024-01-25T09:00:26;37.51;31.68;40.62;;
49732;Laerm;43666;51.442;6.778;2024-01-25T09:02:56;37.35;32.35;40.03;;
49732;Laerm;43666;51.442;6.778;2024-01-25T09:05:24;37.30;31.68;40.33;;
49732;Laerm;43666;51.442;6.778;2024-01-25T09:07:54;37.34;30.89;40.43;;
49732;Laerm;43666;51.442;6.778;2024-01-25T09:10:20;37.32;31.68;40.23;;
49732;Laerm;43666;51.442;6.778;2024-01-25T09:12:46;37.38;32.93;40.23;;
49732;Laerm;43666;51.442;6.778;2024-01-25T09:15:12;37.32;31.68;40.23;;
49732;Laerm;43666;51.442;6.778;2024-01-25T09:17:42;37.32;31.68;40.33;;
49732;Laerm;43666;51.442;6.778;2024-01-25T09:20:12;37.31;32.93;40.13;;
49732;Laerm;43666;51.442;6.778;2024-01-25T09:22:38;37.36;30.89;40.13;;
49732;Laerm;43666;51.442;6.778;2024-01-25T09:25:04;37.31;31.33;40.27;;
49732;Laerm;43666;51.442;6.778;2024-01-25T09:27:36;37.29;32.35;40.23;;
49732;Laerm;43666;51.442;6.778;2024-01-25T09:30:07;37.42;32.93;40.13;;
49732;Laerm;43666;51.442;6.778;2024-01-25T09:32:33;37.29;32.35;40.43;;
49732;Laerm;43666;51.442;6.778;2024-01-25T09:34:59;37.38;32.35;40.13;;
49732;Laerm;43666;51.442;6.778;2024-01-25T09:37:25;37.41;32.93;40.53;;
49732;Laerm;43666;51.442;6.778;2024-01-25T09:39:51;37.34;32.35;40.43;;
49732;Laerm;43666;51.442;6.778;2024-01-25T09:42:19;37.43;32.93;40.33;;
49732;Laerm;43666;51.442;6.778;2024-01-25T09:44:53;37.32;32.35;40.23;;
49732;Laerm;43666;51.442;6.778;2024-01-25T09:47:20;37.32;32.35;40.03;;
49732;Laerm;43666;51.442;6.778;2024-01-25T09:49:48;37.36;30.89;40.23;;
49732;Laerm;43666;51.442;6.778;2024-01-25T09:52:18;37.46;30.89;40.18;;
49732;Laerm;43666;51.442;6.778;2024-01-25T09:54:54;37.53;32.93;40.45;;
49732;Laerm;43666;51.442;6.778;2024-01-25T09:57:22;37.54;32.35;40.53;;
49732;Laerm;43666;51.442;6.778;2024-01-25T09:59:49;37.45;32.35;40.03;;
49732;Laerm;43666;51.442;6.778;2024-01-25T10:02:20;37.48;32.35;40.53;;
49732;Laerm;43666;51.442;6.778;2024-01-25T10:04:49;37.43;33.44;40.13;;
49732;Laerm;43666;51.442;6.778;2024-01-25T10:07:16;37.34;32.35;40.03;;
49732;Laerm;43666;51.442;6.778;2024-01-25T10:09:42;37.40;32.35;40.03;;
49732;Laerm;43666;51.442;6.778;2024-01-25T10:12:10;37.47;32.93;40.03;;
49732;Laerm;43666;51.442;6.778;2024-01-25T10:14:36;37.44;31.68;40.53;;
49732;Laerm;43666;51.442;6.778;2024-01-25T10:17:02;37.41;32.93;40.23;;
49732;Laerm;43666;51.442;6.778;2024-01-25T10:19:28;37.46;31.68;40.23;;
49732;Laerm;43666;51.442;6.778;2024-01-25T10:21:55;37.39;32.35;40.23;;
49732;Laerm;43666;51.442;6.778;2024-01-25T10:24:21;37.43;32.93;40.23;;
49732;Laerm;43666;51.442;6.778;2024-01-25T10:26:48;37.40;31.68;40.23;;
49732;Laerm;43666;51.442;6.778;2024-01-25T10:29:24;37.47;32.93;40.23;;
49732;Laerm;43666;51.442;6.778;2024-01-25T10:31:51;37.45;33.44;40.43;;
49732;Laerm;43666;51.442;6.778;2024-01-25T10:34:17;37.53;32.35;40.62;;
49732;Laerm;43666;51.442;6.778;2024-01-25T10:36:44;37.48;31.68;40.13;;
49732;Laerm;43666;51.442;6.778;2024-01-25T10:39:10;37.47;32.93;40.33;;
49732;Laerm;43666;51.442;6.778;2024-01-25T10:41:37;37.47;32.58;40.53;;
49732;Laerm;43666;51.442;6.778;2024-01-25T10:44:03;37.44;32.35;40.62;;
49732;Laerm;43666;51.442;6.778;2024-01-25T10:46:35;37.43;33.44;40.03;;
49732;Laerm;43666;51.442;6.778;2024-01-25T10:49:16;37.45;32.35;40.23;;
49732;Laerm;43666;51.442;6.778;2024-01-25T10:51:42;37.48;32.35;40.13;;
49732;Laerm;43666;51.442;6.778;2024-01-25T10:54:08;37.53;33.44;40.03;;
49732;Laerm;43666;51.442;6.778;2024-01-25T10:56:41;37.50;33.44;40.43;;
49732;Laerm;43666;51.442;6.778;2024-01-25T10:59:10;37.49;31.68;40.13;;
49732;Laerm;43666;51.442;6.778;2024-01-25T11:01:38;37.55;32.35;40.53;;
49732;Laerm;43666;51.442;6.778;2024-01-25T11:04:18;37.48;32.93;40.43;;
49732;Laerm;43666;51.442;6.778;2024-01-25T11:06:44;37.45;32.93;40.80;;
49732;Laerm;43666;51.442;6.778;2024-01-25T11:09:17;37.47;32.93;40.23;;
49732;Laerm;43666;51.442;6.778;2024-01-25T11:11:44;37.46;33.44;40.13;;
49732;Laerm;43666;51.442;6.778;2024-01-25T11:14:13;37.47;32.93;40.53;;
49732;Laerm;43666;51.442;6.778;2024-01-25T11:16:39;37.51;32.35;40.03;;
49732;Laerm;43666;51.442;6.778;2024-01-25T11:19:18;37.54;33.90;40.23;;
49732;Laerm;43666;51.442;6.778;2024-01-25T11:21:48;37.54;32.93;40.23;;
49732;Laerm;43666;51.442;6.778;2024-01-25T11:24:24;37.59;33.44;40.53;;
49732;Laerm;43666;51.442;6.778;2024-01-25T11:27:02;37.66;33.44;40.53;;
49732;Laerm;43666;51.442;6.778;2024-01-25T11:29:28;37.59;32.93;40.43;;
49732;Laerm;43666;51.442;6.778;2024-01-25T11:31:54;37.60;32.35;40.13;;
49732;Laerm;43666;51.442;6.778;2024-01-25T11:34:23;37.65;32.93;40.43;;
49732;Laerm;43666;51.442;6.778;2024-01-25T11:36:49;37.67;33.90;40.33;;
49732;Laerm;43666;51.442;6.778;2024-01-25T11:39:15;37.72;32.93;40.71;;
49732;Laerm;43666;51.442;6.778;2024-01-25T11:41:44;37.80;33.90;40.53;;
49732;Laerm;43666;51.442;6.778;2024-01-25T11:44:11;37.71;33.55;40.33;;
49732;Laerm;43666;51.442;6.778;2024-01-25T11:46:37;37.72;34.31;40.23;;
49732;Laerm;43666;51.442;6.778;2024-01-25T11:49:03;37.75;33.90;40.43;;
49732;Laerm;43666;51.442;6.778;2024-01-25T11:51:29;37.72;32.93;40.33;;
49732;Laerm;43666;51.442;6.778;2024-01-25T11:53:56;37.73;32.35;40.53;;
49732;Laerm;43666;51.442;6.778;2024-01-25T11:56:23;37.72;33.44;40.33;;
49732;Laerm;43666;51.442;6.778;2024-01-25T11:58:50;37.71;33.90;40.33;;
49732;Laerm;43666;51.442;6.778;2024-01-25T12:01:17;37.71;33.44;40.53;;
49732;Laerm;43666;51.442;6.778;2024-01-25T12:03:43;37.67;33.90;40.62;;
49732;Laerm;43666;51.442;6.778;2024-01-25T12:06:09;37.67;33.44;40.53;;
49732;Laerm;43666;51.442;6.778;2024-01-25T12:08:35;37.69;33.44;40.33;;
49732;Laerm;43666;51.442;6.778;2024-01-25T12:11:02;37.69;33.44;40.43;;
49732;Laerm;43666;51.442;6.778;2024-01-25T12:13:28;37.66;33.44;41.53;;
49732;Laerm;43666;51.442;6.778;2024-01-25T12:15:57;37.62;33.90;40.33;;
49732;Laerm;43666;51.442;6.778;2024-01-25T12:18:23;37.60;32.35;40.13;;
49732;Laerm;43666;51.442;6.778;2024-01-25T12:20:50;37.61;33.90;40.43;;
49732;Laerm;43666;51.442;6.778;2024-01-25T12:23:15;37.60;32.93;40.13;;
49732;Laerm;43666;51.442;6.778;2024-01-25T12:25:41;37.67;33.90;40.43;;
49732;Laerm;43666;51.442;6.778;2024-01-25T12:28:09;37.65;32.93;41.89;;
49732;Laerm;43666;51.442;6.778;2024-01-25T12:30:35;37.66;33.90;40.43;;
49732;Laerm;43666;51.442;6.778;2024-01-25T12:33:03;37.73;33.44;40.33;;
49732;Laerm;43666;51.442;6.778;2024-01-25T12:35:29;37.70;34.31;41.06;;
49732;Laerm;43666;51.442;6.778;2024-01-25T12:37:55;37.76;32.35;40.43;;
49732;Laerm;43666;51.442;6.778;2024-01-25T12:40:21;37.72;33.44;40.43;;
49732;Laerm;43666;51.442;6.778;2024-01-25T12:42:46;37.69;32.35;40.23;;
49732;Laerm;43666;51.442;6.778;2024-01-25T12:45:12;37.66;33.90;40.13;;
49732;Laerm;43666;51.442;6.778;2024-01-25T12:47:38;37.63;33.44;40.36;;
49732;Laerm;43666;51.442;6.778;2024-01-25T12:50:04;37.68;32.35;40.43;;
49732;Laerm;43666;51.442;6.778;2024-01-25T12:52:33;37.67;32.93;40.71;;
49732;Laerm;43666;51.442;6.778;2024-01-25T12:54:59;37.67;33.44;40.23;;
49732;Laerm;43666;51.442;6.778;2024-01-25T12:57:28;37.67;33.44;40.71;;
49732;Laerm;43666;51.442;6.778;2024-01-25T12:59:54;37.75;34.31;40.71;;
49732;Laerm;43666;51.442;6.778;2024-01-25T13:02:20;37.76;33.44;40.33;;
49732;Laerm;43666;51.442;6.778;2024-01-25T13:04:47;37.65;33.44;40.13;;
49732;Laerm;43666;51.442;6.778;2024-01-25T13:07:13;37.67;33.90;40.53;;
49732;Laerm;43666;51.442;6.778;2024-01-25T13:09:39;37.62;33.44;40.13;;
49732;Laerm;43666;51.442;6.778;2024-01-25T13:12:06;37.58;32.93;40.43;;
49732;Laerm;43666;51.442;6.778;2024-01-25T13:14:33;37.64;33.90;40.53;;
49732;Laerm;43666;51.442;6.778;2024-01-25T13:17:01;37.65;31.68;40.43;;
49732;Laerm;43666;51.442;6.778;2024-01-25T13:19:27;37.62;32.93;40.53;;
49732;Laerm;43666;51.442;6.778;2024-01-25T13:21:54;37.59;32.93;40.98;;
49732;Laerm;43666;51.442;6.778;2024-01-25T13:24:20;37.59;33.90;40.23;;
49732;Laerm;43666;51.442;6.778;2024-01-25T13:26:46;37.65;32.93;40.33;;
49732;Laerm;43666;51.442;6.778;2024-01-25T13:29:11;37.58;32.93;40.33;;
49732;Laerm;43666;51.442;6.778;2024-01-25T13:31:39;37.60;33.90;40.13;;
49732;Laerm;43666;51.442;6.778;2024-01-25T13:34:06;37.64;32.93;40.33;;
49732;Laerm;43666;51.442;6.778;2024-01-25T13:36:31;37.67;32.35;40.23;;
49732;Laerm;43666;51.442;6.778;2024-01-25T13:38:57;37.62;33.44;40.33;;
49732;Laerm;43666;51.442;6.778;2024-01-25T13:41:23;37.56;33.44;40.33;;
49732;Laerm;43666;51.442;6.778;2024-01-25T13:43:49;37.54;32.93;40.23;;
49732;Laerm;43666;51.442;6.778;2024-01-25T13:46:15;37.61;33.44;40.13;;